Cr-1, Brazil
Current Conditions -  °F | °C
As of 11:00 PM on Saturday 22 Nov 2014 (Local Time) from SBCO Reporting Station
Clear Clear  
Wind Chill: 70°   Ceiling: Unl
Heat Index: 70°   Visibility: 6mi
Dew Point: 59°   Wind: 7mph
Humidity: 68%   Direction: 300°WNW
Pressure: 29.91"   Gusts: NA
Location:  30.33°S, 50.4°W
Report Text: SBCO 230100Z 30006KT CAVOK 21/15 Q1013
Loading
Personal Weather Stations






























Interactive Weather Map New forecast layout! Learn more

10-Day Weather Forecast

Advertisements
Track Severe Weather on mobile